sensor_id;sensor_type;location;lat;lon;timestamp;pressure;altitude;pressure_sealevel;temperature;humidity
57606;BME280;43430;48.204;11.556;2023-08-21T00:02:22;96510.25;;;21.29;100.00
57606;BME280;43430;48.204;11.556;2023-08-21T00:04:47;96510.50;;;21.32;100.00
57606;BME280;43430;48.204;11.556;2023-08-21T00:07:12;96508.66;;;21.28;100.00
57606;BME280;43430;48.204;11.556;2023-08-21T00:09:38;96505.44;;;21.26;100.00
57606;BME280;43430;48.204;11.556;2023-08-21T00:12:03;96505.47;;;21.21;100.00
57606;BME280;43430;48.204;11.556;2023-08-21T00:14:29;96510.06;;;21.15;100.00
57606;BME280;43430;48.204;11.556;2023-08-21T00:16:54;96510.88;;;21.10;100.00
57606;BME280;43430;48.204;11.556;2023-08-21T00:19:20;96506.38;;;21.01;100.00
57606;BME280;43430;48.204;11.556;2023-08-21T00:21:45;96515.78;;;20.93;100.00
57606;BME280;43430;48.204;11.556;2023-08-21T00:24:10;96513.41;;;20.86;100.00
57606;BME280;43430;48.204;11.556;2023-08-21T00:26:36;96515.53;;;20.84;100.00
57606;BME280;43430;48.204;11.556;2023-08-21T00:29:01;96513.41;;;20.86;100.00
57606;BME280;43430;48.204;11.556;2023-08-21T00:31:27;96508.00;;;20.92;100.00
57606;BME280;43430;48.204;11.556;2023-08-21T00:33:52;96509.91;;;20.86;100.00
57606;BME280;43430;48.204;11.556;2023-08-21T00:36:17;96507.81;;;20.73;100.00
57606;BME280;43430;48.204;11.556;2023-08-21T00:38:45;96499.28;;;20.60;100.00
57606;BME280;43430;48.204;11.556;2023-08-21T00:41:10;96509.47;;;20.53;100.00
57606;BME280;43430;48.204;11.556;2023-08-21T00:43:35;96510.00;;;20.50;100.00
57606;BME280;43430;48.204;11.556;2023-08-21T00:46:01;96507.31;;;20.45;100.00
57606;BME280;43430;48.204;11.556;2023-08-21T00:48:26;96507.31;;;20.40;100.00
57606;BME280;43430;48.204;11.556;2023-08-21T00:50:52;96508.16;;;20.41;100.00
57606;BME280;43430;48.204;11.556;2023-08-21T00:53:17;96513.50;;;20.35;100.00
57606;BME280;43430;48.204;11.556;2023-08-21T00:55:43;96508.44;;;20.29;100.00
57606;BME280;43430;48.204;11.556;2023-08-21T00:58:12;96518.34;;;20.23;100.00
57606;BME280;43430;48.204;11.556;2023-08-21T01:00:38;96509.75;;;20.26;100.00
57606;BME280;43430;48.204;11.556;2023-08-21T01:03:05;96510.00;;;20.40;100.00
57606;BME280;43430;48.204;11.556;2023-08-21T01:05:30;96511.09;;;20.44;100.00
57606;BME280;43430;48.204;11.556;2023-08-21T01:08:09;96504.91;;;20.44;100.00
57606;BME280;43430;48.204;11.556;2023-08-21T01:11:04;96510.25;;;20.44;100.00
57606;BME280;43430;48.204;11.556;2023-08-21T01:14:10;96508.94;;;20.41;100.00
57606;BME280;43430;48.204;11.556;2023-08-21T01:16:40;96514.56;;;20.39;100.00
57606;BME280;43430;48.204;11.556;2023-08-21T01:19:18;96517.25;;;20.39;100.00
57606;BME280;43430;48.204;11.556;2023-08-21T01:21:48;96512.44;;;20.42;100.00
57606;BME280;43430;48.204;11.556;2023-08-21T01:24:13;96518.84;;;20.46;100.00
57606;BME280;43430;48.204;11.556;2023-08-21T01:26:38;96514.81;;;20.43;100.00
57606;BME280;43430;48.204;11.556;2023-08-21T01:29:04;96517.50;;;20.43;100.00
57606;BME280;43430;48.204;11.556;2023-08-21T01:31:34;96519.41;;;20.37;100.00
57606;BME280;43430;48.204;11.556;2023-08-21T01:34:06;96508.94;;;20.36;100.00
57606;BME280;43430;48.204;11.556;2023-08-21T01:36:32;96511.09;;;20.34;100.00
57606;BME280;43430;48.204;11.556;2023-08-21T01:38:57;96510.59;;;20.17;100.00
57606;BME280;43430;48.204;11.556;2023-08-21T01:41:23;96513.81;;;20.13;100.00
57606;BME280;43430;48.204;11.556;2023-08-21T01:43:49;96522.91;;;20.12;100.00
57606;BME280;43430;48.204;11.556;2023-08-21T01:46:15;96521.56;;;20.10;100.00
57606;BME280;43430;48.204;11.556;2023-08-21T01:48:40;96518.38;;;20.03;100.00
57606;BME280;43430;48.204;11.556;2023-08-21T01:51:05;96528.53;;;20.01;100.00
57606;BME280;43430;48.204;11.556;2023-08-21T01:53:31;96533.34;;;19.99;100.00
57606;BME280;43430;48.204;11.556;2023-08-21T01:55:56;96531.19;;;19.96;100.00
57606;BME280;43430;48.204;11.556;2023-08-21T01:58:21;96532.81;;;19.91;100.00
57606;BME280;43430;48.204;11.556;2023-08-21T02:00:47;96527.47;;;19.86;100.00
57606;BME280;43430;48.204;11.556;2023-08-21T02:03:13;96528.78;;;19.84;100.00
57606;BME280;43430;48.204;11.556;2023-08-21T02:05:39;96526.94;;;19.79;100.00
57606;BME280;43430;48.204;11.556;2023-08-21T02:08:11;96532.53;;;19.78;100.00
57606;BME280;43430;48.204;11.556;2023-08-21T02:10:36;96529.06;;;19.77;100.00
57606;BME280;43430;48.204;11.556;2023-08-21T02:13:02;96525.31;;;19.83;100.00
57606;BME280;43430;48.204;11.556;2023-08-21T02:15:27;96524.78;;;19.91;100.00
57606;BME280;43430;48.204;11.556;2023-08-21T02:17:52;96517.28;;;19.88;100.00
57606;BME280;43430;48.204;11.556;2023-08-21T02:20:18;96517.53;;;19.92;100.00
57606;BME280;43430;48.204;11.556;2023-08-21T02:22:43;96514.06;;;19.91;100.00
57606;BME280;43430;48.204;11.556;2023-08-21T02:25:08;96521.28;;;19.81;100.00
57606;BME280;43430;48.204;11.556;2023-08-21T02:27:34;96522.09;;;19.71;100.00
57606;BME280;43430;48.204;11.556;2023-08-21T02:29:59;96524.25;;;19.69;100.00
57606;BME280;43430;48.204;11.556;2023-08-21T02:32:25;96526.88;;;19.59;100.00
57606;BME280;43430;48.204;11.556;2023-08-21T02:34:50;96526.84;;;19.54;100.00
57606;BME280;43430;48.204;11.556;2023-08-21T02:37:15;96520.19;;;19.51;100.00
57606;BME280;43430;48.204;11.556;2023-08-21T02:39:41;96529.00;;;19.52;100.00
57606;BME280;43430;48.204;11.556;2023-08-21T02:42:06;96534.31;;;19.47;100.00
57606;BME280;43430;48.204;11.556;2023-08-21T02:44:31;96533.25;;;19.42;100.00
57606;BME280;43430;48.204;11.556;2023-08-21T02:46:57;96537.28;;;19.45;100.00
57606;BME280;43430;48.204;11.556;2023-08-21T02:49:22;96539.41;;;19.38;100.00
57606;BME280;43430;48.204;11.556;2023-08-21T02:51:48;96540.44;;;19.37;100.00
57606;BME280;43430;48.204;11.556;2023-08-21T02:54:13;96539.13;;;19.39;100.00
57606;BME280;43430;48.204;11.556;2023-08-21T02:56:38;96540.19;;;19.33;100.00
57606;BME280;43430;48.204;11.556;2023-08-21T02:59:04;96535.34;;;19.30;100.00
57606;BME280;43430;48.204;11.556;2023-08-21T03:01:29;96536.69;;;19.33;100.00
57606;BME280;43430;48.204;11.556;2023-08-21T03:03:54;96536.72;;;19.38;100.00
57606;BME280;43430;48.204;11.556;2023-08-21T03:06:20;96536.44;;;19.39;100.00
57606;BME280;43430;48.204;11.556;2023-08-21T03:08:45;96538.06;;;19.40;100.00
57606;BME280;43430;48.204;11.556;2023-08-21T03:11:11;96536.44;;;19.39;100.00
57606;BME280;43430;48.204;11.556;2023-08-21T03:13:36;96540.72;;;19.35;100.00
57606;BME280;43430;48.204;11.556;2023-08-21T03:16:01;96542.81;;;19.23;100.00
57606;BME280;43430;48.204;11.556;2023-08-21T03:18:31;96549.75;;;19.19;100.00
57606;BME280;43430;48.204;11.556;2023-08-21T03:20:57;96552.44;;;19.19;100.00
57606;BME280;43430;48.204;11.556;2023-08-21T03:23:23;96552.16;;;19.15;100.00
57606;BME280;43430;48.204;11.556;2023-08-21T03:25:52;96556.16;;;19.13;100.00
57606;BME280;43430;48.204;11.556;2023-08-21T03:28:17;96556.19;;;19.18;100.00
57606;BME280;43430;48.204;11.556;2023-08-21T03:30:42;96555.91;;;19.19;100.00
57606;BME280;43430;48.204;11.556;2023-08-21T03:33:08;96555.63;;;19.16;100.00
57606;BME280;43430;48.204;11.556;2023-08-21T03:35:33;96555.91;;;19.14;100.00
57606;BME280;43430;48.204;11.556;2023-08-21T03:37:59;96554.59;;;19.17;100.00
57606;BME280;43430;48.204;11.556;2023-08-21T03:40:24;96559.91;;;19.12;100.00
57606;BME280;43430;48.204;11.556;2023-08-21T03:42:49;96552.66;;;19.07;100.00
57606;BME280;43430;48.204;11.556;2023-08-21T03:45:15;96564.16;;;19.08;100.00
57606;BME280;43430;48.204;11.556;2023-08-21T03:47:40;96561.72;;;19.06;100.00
57606;BME280;43430;48.204;11.556;2023-08-21T03:50:06;96562.81;;;19.00;100.00
57606;BME280;43430;48.204;11.556;2023-08-21T03:52:31;96572.94;;;18.98;100.00
57606;BME280;43430;48.204;11.556;2023-08-21T03:54:57;96578.84;;;19.00;100.00
57606;BME280;43430;48.204;11.556;2023-08-21T03:57:22;96572.41;;;18.96;100.00
57606;BME280;43430;48.204;11.556;2023-08-21T03:59:47;96571.28;;;18.92;100.00
57606;BME280;43430;48.204;11.556;2023-08-21T04:02:13;96567.25;;;18.79;100.00
57606;BME280;43430;48.204;11.556;2023-08-21T04:04:38;96573.09;;;18.76;100.00
57606;BME280;43430;48.204;11.556;2023-08-21T04:07:03;96574.09;;;18.70;100.00
57606;BME280;43430;48.204;11.556;2023-08-21T04:09:29;96576.22;;;18.68;100.00
57606;BME280;43430;48.204;11.556;2023-08-21T04:11:54;96577.56;;;18.70;100.00
57606;BME280;43430;48.204;11.556;2023-08-21T04:14:19;96575.50;;;18.78;100.00
57606;BME280;43430;48.204;11.556;2023-08-21T04:16:45;96573.91;;;18.77;100.00
57606;BME280;43430;48.204;11.556;2023-08-21T04:19:10;96567.47;;;18.78;100.00
57606;BME280;43430;48.204;11.556;2023-08-21T04:21:35;96560.03;;;18.80;100.00
57606;BME280;43430;48.204;11.556;2023-08-21T04:24:01;96562.66;;;18.74;100.00
57606;BME280;43430;48.204;11.556;2023-08-21T04:26:26;96566.66;;;18.72;100.00
57606;BME280;43430;48.204;11.556;2023-08-21T04:28:52;96574.06;;;18.65;100.00
57606;BME280;43430;48.204;11.556;2023-08-21T04:31:17;96574.31;;;18.63;100.00
57606;BME280;43430;48.204;11.556;2023-08-21T04:33:42;96577.28;;;18.67;100.00
57606;BME280;43430;48.204;11.556;2023-08-21T04:36:14;96574.59;;;18.67;100.00
57606;BME280;43430;48.204;11.556;2023-08-21T04:38:39;96580.50;;;18.69;100.00
57606;BME280;43430;48.204;11.556;2023-08-21T04:41:08;96577.56;;;18.70;100.00
57606;BME280;43430;48.204;11.556;2023-08-21T04:43:34;96582.34;;;18.68;100.00
57606;BME280;43430;48.204;11.556;2023-08-21T04:45:59;96587.16;;;18.66;100.00
57606;BME280;43430;48.204;11.556;2023-08-21T04:48:25;96596.06;;;18.77;100.00
57606;BME280;43430;48.204;11.556;2023-08-21T04:50:50;96584.66;;;18.87;100.00
57606;BME280;43430;48.204;11.556;2023-08-21T04:53:15;96585.16;;;18.89;100.00
57606;BME280;43430;48.204;11.556;2023-08-21T04:55:41;96583.91;;;18.96;100.00
57606;BME280;43430;48.204;11.556;2023-08-21T04:58:07;96582.84;;;19.03;100.00
57606;BME280;43430;48.204;11.556;2023-08-21T05:00:33;96585.00;;;19.06;100.00
57606;BME280;43430;48.204;11.556;2023-08-21T05:02:59;96586.63;;;19.12;100.00
57606;BME280;43430;48.204;11.556;2023-08-21T05:05:24;96583.44;;;19.15;100.00
57606;BME280;43430;48.204;11.556;2023-08-21T05:07:50;96583.44;;;19.15;100.00
57606;BME280;43430;48.204;11.556;2023-08-21T05:10:15;96576.53;;;19.24;100.00
57606;BME280;43430;48.204;11.556;2023-08-21T05:12:41;96576.53;;;19.29;100.00
57606;BME280;43430;48.204;11.556;2023-08-21T05:15:07;96573.09;;;19.39;100.00
57606;BME280;43430;48.204;11.556;2023-08-21T05:17:32;96579.00;;;19.46;100.00
57606;BME280;43430;48.204;11.556;2023-08-21T05:19:57;96583.03;;;19.54;100.00
57606;BME280;43430;48.204;11.556;2023-08-21T05:22:23;96582.53;;;19.62;100.00
57606;BME280;43430;48.204;11.556;2023-08-21T05:24:48;96585.78;;;19.69;100.00
57606;BME280;43430;48.204;11.556;2023-08-21T05:27:13;96579.38;;;19.80;100.00
57606;BME280;43430;48.204;11.556;2023-08-21T05:29:39;96574.56;;;19.87;100.00
57606;BME280;43430;48.204;11.556;2023-08-21T05:32:04;96575.13;;;19.89;100.00
57606;BME280;43430;48.204;11.556;2023-08-21T05:34:30;96572.97;;;19.97;100.00
57606;BME280;43430;48.204;11.556;2023-08-21T05:36:56;96574.28;;;20.09;100.00
57606;BME280;43430;48.204;11.556;2023-08-21T05:39:21;96571.38;;;20.11;100.00
57606;BME280;43430;48.204;11.556;2023-08-21T05:41:46;96575.94;;;20.21;100.00
57606;BME280;43430;48.204;11.556;2023-08-21T05:44:12;96570.81;;;20.29;100.00
57606;BME280;43430;48.204;11.556;2023-08-21T05:46:37;96570.28;;;20.48;100.00
57606;BME280;43430;48.204;11.556;2023-08-21T05:49:03;96562.25;;;20.63;100.00
57606;BME280;43430;48.204;11.556;2023-08-21T05:51:28;96571.84;;;20.79;100.00
57606;BME280;43430;48.204;11.556;2023-08-21T05:53:54;96563.22;;;20.98;100.00
57606;BME280;43430;48.204;11.556;2023-08-21T05:56:19;96563.22;;;21.03;100.00
57606;BME280;43430;48.204;11.556;2023-08-21T05:58:45;96556.72;;;21.14;100.00
57606;BME280;43430;48.204;11.556;2023-08-21T06:01:11;96554.25;;;21.23;100.00
57606;BME280;43430;48.204;11.556;2023-08-21T06:03:36;96553.94;;;21.40;100.00
57606;BME280;43430;48.204;11.556;2023-08-21T06:06:01;96553.16;;;21.39;100.00
57606;BME280;43430;48.204;11.556;2023-08-21T06:08:27;96546.38;;;21.47;100.00
57606;BME280;43430;48.204;11.556;2023-08-21T06:10:52;96545.09;;;21.39;100.00
57606;BME280;43430;48.204;11.556;2023-08-21T06:13:18;96549.63;;;21.44;100.00
57606;BME280;43430;48.204;11.556;2023-08-21T06:15:44;96551.44;;;21.59;100.00
57606;BME280;43430;48.204;11.556;2023-08-21T06:18:10;96555.97;;;21.63;100.00
57606;BME280;43430;48.204;11.556;2023-08-21T06:20:36;96552.16;;;21.69;100.00
57606;BME280;43430;48.204;11.556;2023-08-21T06:23:02;96542.41;;;21.84;100.00
57606;BME280;43430;48.204;11.556;2023-08-21T06:25:28;96548.81;;;21.88;100.00
57606;BME280;43430;48.204;11.556;2023-08-21T06:27:55;96544.41;;;22.02;100.00
57606;BME280;43430;48.204;11.556;2023-08-21T06:30:21;96547.50;;;22.19;100.00
57606;BME280;43430;48.204;11.556;2023-08-21T06:32:46;96547.81;;;22.18;100.00
57606;BME280;43430;48.204;11.556;2023-08-21T06:35:11;96547.25;;;22.21;100.00
57606;BME280;43430;48.204;11.556;2023-08-21T06:37:37;96540.94;;;22.36;100.00
57606;BME280;43430;48.204;11.556;2023-08-21T06:40:03;96536.81;;;22.43;100.00
57606;BME280;43430;48.204;11.556;2023-08-21T06:42:28;96532.22;;;22.49;100.00
57606;BME280;43430;48.204;11.556;2023-08-21T06:44:53;96536.34;;;22.36;100.00
57606;BME280;43430;48.204;11.556;2023-08-21T06:47:19;96537.22;;;22.32;100.00
57606;BME280;43430;48.204;11.556;2023-08-21T06:49:44;96536.59;;;22.40;100.00
57606;BME280;43430;48.204;11.556;2023-08-21T06:52:09;96547.47;;;22.54;100.00
57606;BME280;43430;48.204;11.556;2023-08-21T06:54:35;96544.22;;;22.57;100.00
57606;BME280;43430;48.204;11.556;2023-08-21T06:57:00;96537.16;;;22.66;100.00
57606;BME280;43430;48.204;11.556;2023-08-21T06:59:26;96534.34;;;22.76;100.00
57606;BME280;43430;48.204;11.556;2023-08-21T07:01:51;96526.44;;;22.85;100.00
57606;BME280;43430;48.204;11.556;2023-08-21T07:04:17;96531.25;;;22.88;100.00
57606;BME280;43430;48.204;11.556;2023-08-21T07:06:42;96537.28;;;23.04;100.00
57606;BME280;43430;48.204;11.556;2023-08-21T07:09:07;96526.19;;;23.10;100.00
57606;BME280;43430;48.204;11.556;2023-08-21T07:11:33;96526.19;;;23.29;100.00
57606;BME280;43430;48.204;11.556;2023-08-21T07:13:59;96523.66;;;23.38;100.00
57606;BME280;43430;48.204;11.556;2023-08-21T07:16:24;96525.56;;;23.37;100.00
57606;BME280;43430;48.204;11.556;2023-08-21T07:18:51;96528.47;;;23.41;100.00
57606;BME280;43430;48.204;11.556;2023-08-21T07:21:16;96531.16;;;23.41;100.00
57606;BME280;43430;48.204;11.556;2023-08-21T07:23:42;96533.78;;;23.46;100.00
57606;BME280;43430;48.204;11.556;2023-08-21T07:26:07;96529.47;;;23.64;100.00
57606;BME280;43430;48.204;11.556;2023-08-21T07:28:33;96526.75;;;23.69;100.00
57606;BME280;43430;48.204;11.556;2023-08-21T07:30:59;96523.31;;;23.82;100.00
57606;BME280;43430;48.204;11.556;2023-08-21T07:33:25;96521.84;;;23.90;100.00
57606;BME280;43430;48.204;11.556;2023-08-21T07:36:01;96529.03;;;23.95;100.00
57606;BME280;43430;48.204;11.556;2023-08-21T07:38:27;96523.28;;;24.01;100.00
57606;BME280;43430;48.204;11.556;2023-08-21T07:41:10;96518.91;;;24.05;100.00
57606;BME280;43430;48.204;11.556;2023-08-21T07:43:36;96524.03;;;23.88;100.00
57606;BME280;43430;48.204;11.556;2023-08-21T07:46:05;96523.38;;;23.96;100.00
57606;BME280;43430;48.204;11.556;2023-08-21T07:48:32;96524.63;;;24.17;100.00
57606;BME280;43430;48.204;11.556;2023-08-21T07:50:57;96517.50;;;24.27;100.00
57606;BME280;43430;48.204;11.556;2023-08-21T07:53:23;96513.09;;;24.31;100.00
57606;BME280;43430;48.204;11.556;2023-08-21T07:55:49;96510.81;;;24.38;100.00
57606;BME280;43430;48.204;11.556;2023-08-21T07:58:14;96509.97;;;24.56;100.00
57606;BME280;43430;48.204;11.556;2023-08-21T08:00:40;96506.47;;;24.70;100.00
57606;BME280;43430;48.204;11.556;2023-08-21T08:03:07;96505.38;;;24.71;100.00
57606;BME280;43430;48.204;11.556;2023-08-21T08:05:33;96504.91;;;24.82;100.00
57606;BME280;43430;48.204;11.556;2023-08-21T08:07:59;96501.88;;;24.84;100.00
57606;BME280;43430;48.204;11.556;2023-08-21T08:10:24;96506.47;;;24.97;100.00
57606;BME280;43430;48.204;11.556;2023-08-21T08:12:50;96504.06;;;25.09;100.00
57606;BME280;43430;48.204;11.556;2023-08-21T08:15:16;96509.28;;;25.20;100.00
57606;BME280;43430;48.204;11.556;2023-08-21T08:17:41;96515.06;;;25.27;100.00
57606;BME280;43430;48.204;11.556;2023-08-21T08:20:07;96511.19;;;25.33;100.00
57606;BME280;43430;48.204;11.556;2023-08-21T08:22:32;96513.16;;;25.41;100.00
57606;BME280;43430;48.204;11.556;2023-08-21T08:25:00;96508.53;;;25.42;100.00
57606;BME280;43430;48.204;11.556;2023-08-21T08:27:26;96509.53;;;25.46;100.00
57606;BME280;43430;48.204;11.556;2023-08-21T08:29:51;96511.44;;;25.45;100.00
57606;BME280;43430;48.204;11.556;2023-08-21T08:32:17;96504.47;;;25.67;100.00
57606;BME280;43430;48.204;11.556;2023-08-21T08:34:42;96503.34;;;25.82;100.00
57606;BME280;43430;48.204;11.556;2023-08-21T08:37:11;96496.13;;;25.77;100.00
57606;BME280;43430;48.204;11.556;2023-08-21T08:39:37;96503.72;;;25.89;100.00
57606;BME280;43430;48.204;11.556;2023-08-21T08:42:06;96494.75;;;26.02;100.00
57606;BME280;43430;48.204;11.556;2023-08-21T08:44:34;96493.25;;;26.18;100.00
57606;BME280;43430;48.204;11.556;2023-08-21T08:47:00;96493.16;;;26.32;100.00
57606;BME280;43430;48.204;11.556;2023-08-21T08:49:26;96495.25;;;26.35;100.00
57606;BME280;43430;48.204;11.556;2023-08-21T08:51:52;96498.81;;;26.44;100.00
57606;BME280;43430;48.204;11.556;2023-08-21T08:54:20;96496.06;;;26.67;100.00
57606;BME280;43430;48.204;11.556;2023-08-21T08:56:45;96498.06;;;26.92;100.00
57606;BME280;43430;48.204;11.556;2023-08-21T08:59:11;96497.69;;;27.16;100.00
57606;BME280;43430;48.204;11.556;2023-08-21T09:01:37;96491.50;;;27.33;100.00
57606;BME280;43430;48.204;11.556;2023-08-21T09:04:03;96495.66;;;27.39;100.00
57606;BME280;43430;48.204;11.556;2023-08-21T09:06:32;96494.19;;;27.25;100.00
57606;BME280;43430;48.204;11.556;2023-08-21T09:08:58;96495.97;;;27.29;100.00
57606;BME280;43430;48.204;11.556;2023-08-21T09:11:23;96489.94;;;27.50;100.00
57606;BME280;43430;48.204;11.556;2023-08-21T09:13:50;96497.56;;;27.65;100.00
57606;BME280;43430;48.204;11.556;2023-08-21T09:16:18;96493.13;;;27.78;100.00
57606;BME280;43430;48.204;11.556;2023-08-21T09:18:50;96485.63;;;27.83;100.00
57606;BME280;43430;48.204;11.556;2023-08-21T09:21:20;96485.16;;;27.81;100.00
57606;BME280;43430;48.204;11.556;2023-08-21T09:23:46;96493.44;;;27.93;100.00
57606;BME280;43430;48.204;11.556;2023-08-21T09:26:19;96483.19;;;28.25;100.00
57606;BME280;43430;48.204;11.556;2023-08-21T09:28:49;96487.28;;;28.31;100.00
57606;BME280;43430;48.204;11.556;2023-08-21T09:31:15;96491.91;;;28.31;100.00
57606;BME280;43430;48.204;11.556;2023-08-21T09:33:41;96497.69;;;28.29;100.00
57606;BME280;43430;48.204;11.556;2023-08-21T09:36:06;96487.59;;;28.47;100.00
57606;BME280;43430;48.204;11.556;2023-08-21T09:38:34;96491.28;;;28.43;100.00
57606;BME280;43430;48.204;11.556;2023-08-21T09:41:00;96491.63;;;28.32;100.00
57606;BME280;43430;48.204;11.556;2023-08-21T09:43:26;96494.03;;;28.25;100.00
57606;BME280;43430;48.204;11.556;2023-08-21T09:45:55;96489.09;;;28.19;100.00
57606;BME280;43430;48.204;11.556;2023-08-21T09:48:27;96484.75;;;28.26;100.00
57606;BME280;43430;48.204;11.556;2023-08-21T09:50:53;96479.78;;;28.46;100.00
57606;BME280;43430;48.204;11.556;2023-08-21T09:53:21;96479.09;;;28.57;100.00
57606;BME280;43430;48.204;11.556;2023-08-21T09:55:50;96474.47;;;28.58;100.00
57606;BME280;43430;48.204;11.556;2023-08-21T09:58:18;96471.28;;;28.56;100.00
57606;BME280;43430;48.204;11.556;2023-08-21T10:00:44;96470.75;;;28.71;100.00
57606;BME280;43430;48.204;11.556;2023-08-21T10:03:11;96466.09;;;28.80;100.00
57606;BME280;43430;48.204;11.556;2023-08-21T10:05:40;96466.63;;;28.95;100.00
57606;BME280;43430;48.204;11.556;2023-08-21T10:08:07;96466.72;;;28.77;100.00
57606;BME280;43430;48.204;11.556;2023-08-21T10:10:36;96469.38;;;28.86;100.00
57606;BME280;43430;48.204;11.556;2023-08-21T10:13:03;96465.72;;;28.91;100.00
57606;BME280;43430;48.204;11.556;2023-08-21T10:15:30;96467.88;;;28.97;100.00
57606;BME280;43430;48.204;11.556;2023-08-21T10:17:56;96454.94;;;29.03;100.00
57606;BME280;43430;48.204;11.556;2023-08-21T10:20:22;96461.78;;;29.09;100.00
57606;BME280;43430;48.204;11.556;2023-08-21T10:22:49;96456.00;;;29.10;100.00
57606;BME280;43430;48.204;11.556;2023-08-21T10:25:20;96459.53;;;29.11;100.00
57606;BME280;43430;48.204;11.556;2023-08-21T10:27:50;96458.81;;;29.23;100.00
57606;BME280;43430;48.204;11.556;2023-08-21T10:30:21;96469.34;;;29.24;100.00
57606;BME280;43430;48.204;11.556;2023-08-21T10:32:48;96460.00;;;29.13;100.00
57606;BME280;43430;48.204;11.556;2023-08-21T10:35:15;96458.06;;;29.14;100.00
57606;BME280;43430;48.204;11.556;2023-08-21T10:40:39;96459.22;;;29.33;100.00
57606;BME280;43430;48.204;11.556;2023-08-21T10:43:38;96460.28;;;29.20;100.00
57606;BME280;43430;48.204;11.556;2023-08-21T10:46:05;96457.75;;;29.57;100.00
57606;BME280;43430;48.204;11.556;2023-08-21T10:48:30;96450.16;;;29.71;94.70
57606;BME280;43430;48.204;11.556;2023-08-21T10:50:56;96447.09;;;29.52;96.35
57606;BME280;43430;48.204;11.556;2023-08-21T10:53:23;96455.66;;;29.84;100.00
57606;BME280;43430;48.204;11.556;2023-08-21T10:55:53;96460.19;;;29.92;99.58
57606;BME280;43430;48.204;11.556;2023-08-21T10:58:19;96462.66;;;29.85;100.00
57606;BME280;43430;48.204;11.556;2023-08-21T11:00:44;96457.34;;;29.88;100.00
57606;BME280;43430;48.204;11.556;2023-08-21T11:03:10;96457.91;;;29.94;100.00
57606;BME280;43430;48.204;11.556;2023-08-21T11:05:35;96459.31;;;30.00;100.00
57606;BME280;43430;48.204;11.556;2023-08-21T11:08:01;96454.69;;;29.79;97.54
57606;BME280;43430;48.204;11.556;2023-08-21T11:10:29;96462.53;;;29.81;100.00
57606;BME280;43430;48.204;11.556;2023-08-21T11:12:56;96457.25;;;29.97;100.00
57606;BME280;43430;48.204;11.556;2023-08-21T11:15:24;96456.63;;;30.12;100.00
57606;BME280;43430;48.204;11.556;2023-08-21T11:17:59;96453.63;;;30.26;100.00
57606;BME280;43430;48.204;11.556;2023-08-21T11:20:33;96451.72;;;30.51;100.00
57606;BME280;43430;48.204;11.556;2023-08-21T11:23:00;96461.16;;;30.66;100.00
57606;BME280;43430;48.204;11.556;2023-08-21T11:25:28;96455.28;;;30.76;100.00
57606;BME280;43430;48.204;11.556;2023-08-21T11:27:54;96458.13;;;30.80;100.00
57606;BME280;43430;48.204;11.556;2023-08-21T11:30:22;96462.03;;;30.45;100.00
57606;BME280;43430;48.204;11.556;2023-08-21T11:32:47;96456.69;;;30.24;99.41
57606;BME280;43430;48.204;11.556;2023-08-21T11:35:13;96458.09;;;30.43;94.85
57606;BME280;43430;48.204;11.556;2023-08-21T11:37:43;96453.09;;;30.57;92.80
57606;BME280;43430;48.204;11.556;2023-08-21T11:40:12;96450.84;;;30.71;89.58
57606;BME280;43430;48.204;11.556;2023-08-21T11:42:38;96447.44;;;30.74;91.68
57606;BME280;43430;48.204;11.556;2023-08-21T11:45:04;96446.06;;;30.68;91.67
57606;BME280;43430;48.204;11.556;2023-08-21T11:47:32;96446.53;;;30.70;92.69
57606;BME280;43430;48.204;11.556;2023-08-21T11:50:05;96443.94;;;30.86;94.11
57606;BME280;43430;48.204;11.556;2023-08-21T11:52:31;96451.00;;;30.87;90.16
57606;BME280;43430;48.204;11.556;2023-08-21T11:54:57;96446.66;;;30.74;92.82
57606;BME280;43430;48.204;11.556;2023-08-21T11:57:23;96440.25;;;30.45;97.50
57606;BME280;43430;48.204;11.556;2023-08-21T11:59:56;96434.50;;;30.59;94.34
57606;BME280;43430;48.204;11.556;2023-08-21T12:02:26;96435.31;;;30.60;96.10
57606;BME280;43430;48.204;11.556;2023-08-21T12:05:01;96437.69;;;30.61;96.73
57606;BME280;43430;48.204;11.556;2023-08-21T12:07:27;96437.44;;;30.54;100.00
57606;BME280;43430;48.204;11.556;2023-08-21T12:09:52;96427.72;;;30.90;100.00
57606;BME280;43430;48.204;11.556;2023-08-21T12:12:18;96431.13;;;30.87;100.00
57606;BME280;43430;48.204;11.556;2023-08-21T12:14:44;96429.06;;;30.96;100.00
57606;BME280;43430;48.204;11.556;2023-08-21T12:17:09;96432.72;;;30.76;100.00
57606;BME280;43430;48.204;11.556;2023-08-21T12:19:35;96430.69;;;30.85;98.83
57606;BME280;43430;48.204;11.556;2023-08-21T12:22:00;96421.16;;;30.91;100.00
57606;BME280;43430;48.204;11.556;2023-08-21T12:24:25;96423.41;;;30.89;100.00
57606;BME280;43430;48.204;11.556;2023-08-21T12:26:51;96426.44;;;31.00;100.00
57606;BME280;43430;48.204;11.556;2023-08-21T12:29:17;96412.28;;;30.94;100.00
57606;BME280;43430;48.204;11.556;2023-08-21T12:31:42;96409.44;;;31.03;99.73
57606;BME280;43430;48.204;11.556;2023-08-21T12:34:08;96413.25;;;31.14;99.72
57606;BME280;43430;48.204;11.556;2023-08-21T12:36:35;96412.25;;;31.06;97.17
57606;BME280;43430;48.204;11.556;2023-08-21T12:39:02;96408.63;;;31.14;96.83
57606;BME280;43430;48.204;11.556;2023-08-21T12:41:28;96406.69;;;31.15;97.05